Time;durP1;ratioP1;P1;durP2;ratioP2;P2;SDS_P1;SDS_P2;PMS_P1;PMS_P2;Temp;Humidity;BMP_temperature;BMP_pressure;BME280_temperature;BME280_humidity;BME280_pressure;Samples;Min_cycle;Max_cycle;Signal;HPM_P1;HPM_P2
2021/05/15 00:01:30;;;;;;;4.38;1.77;;;;;;;11.53;87.86;100063.88;5044971;28;20044;-74
2021/05/15 00:04:34;;;;;;;4.85;1.42;;;;;;;11.55;87.42;100069.94;5044711;28;20388;-73
2021/05/15 00:07:38;;;;;;;6.70;1.70;;;;;;;11.53;87.25;100074.63;5056417;28;20044;-76
2021/05/15 00:10:43;;;;;;;4.80;1.52;;;;;;;11.49;87.19;100070.50;5057094;28;20048;-76
2021/05/15 00:13:47;;;;;;;5.43;1.60;;;;;;;11.47;87.04;100068.00;5057105;28;20067;-75
2021/05/15 00:16:51;;;;;;;3.70;1.40;;;;;;;11.52;87.53;100065.72;5057054;28;20052;-76
2021/05/15 00:19:55;;;;;;;8.40;1.40;;;;;;;11.62;86.91;100073.72;5057022;28;20060;-77
2021/05/15 00:23:00;;;;;;;3.45;1.50;;;;;;;11.64;86.64;100063.66;5044291;28;20507;-75
2021/05/15 00:26:05;;;;;;;5.07;1.60;;;;;;;11.58;86.44;100065.09;5044670;28;20071;-76
2021/05/15 00:29:10;;;;;;;4.15;1.67;;;;;;;11.51;86.83;100063.16;5056855;28;20048;-75
2021/05/15 00:32:14;;;;;;;4.97;1.55;;;;;;;11.47;87.61;100064.44;5056523;28;20052;-75
2021/05/15 00:35:18;;;;;;;4.25;2.08;;;;;;;11.53;87.61;100067.38;5056376;28;20483;-75
2021/05/15 00:38:23;;;;;;;8.48;2.78;;;;;;;11.57;87.02;100070.63;5056697;28;20052;-74
2021/05/15 00:41:27;;;;;;;10.45;1.52;;;;;;;11.64;86.73;100069.91;5056276;28;20056;-74
2021/05/15 00:44:53;;;;;;;7.10;1.83;;;;;;;11.52;86.39;100075.59;5056277;28;20147;-76
2021/05/15 00:47:56;;;;;;;6.15;1.60;;;;;;;11.42;86.18;100078.34;5055979;28;20048;-76
2021/05/15 00:51:02;;;;;;;5.60;1.50;;;;;;;11.49;85.79;100081.25;5043731;28;20404;-76
2021/05/15 00:54:09;;;;;;;3.30;1.20;;;;;;;11.53;85.40;100091.56;5056008;28;20403;-75
2021/05/15 00:57:13;;;;;;;5.03;1.30;;;;;;;11.60;84.97;100081.09;5042943;28;20060;-77
2021/05/15 01:00:18;;;;;;;5.22;1.70;;;;;;;11.48;84.40;100071.53;5043380;28;20049;-76
2021/05/15 01:03:22;;;;;;;3.58;1.45;;;;;;;11.40;84.47;100076.78;5055658;28;20056;-77
2021/05/15 01:06:26;;;;;;;4.20;1.33;;;;;;;11.37;84.78;100071.69;5065404;28;20056;-74
2021/05/15 01:09:31;;;;;;;4.10;1.48;;;;;;;11.27;85.01;100066.34;5075701;28;20040;-77
2021/05/15 01:12:53;;;;;;;4.93;1.48;;;;;;;11.11;84.91;100075.00;5076107;28;20114;-76
2021/05/15 01:16:00;;;;;;;6.57;2.80;;;;;;;11.08;85.01;100071.78;5075438;28;20047;-76
2021/05/15 01:19:06;;;;;;;4.80;1.50;;;;;;;11.01;85.17;100076.88;5063700;28;20048;-76
2021/05/15 01:22:13;;;;;;;7.90;1.38;;;;;;;10.88;85.66;100075.50;5076002;28;20048;-76
2021/05/15 01:25:18;;;;;;;5.50;1.63;;;;;;;10.73;85.83;100080.44;5075431;28;20055;-76
2021/05/15 01:28:31;;;;;;;5.40;1.50;;;;;;;10.64;85.72;100067.03;5075913;28;20474;-77
2021/05/15 01:31:40;;;;;;;6.13;1.50;;;;;;;10.60;85.96;100077.19;5075769;28;20485;-76
2021/05/15 01:34:44;;;;;;;3.58;1.42;;;;;;;10.61;86.47;100073.53;5075689;28;20047;-76
2021/05/15 01:37:49;;;;;;;4.70;1.73;;;;;;;10.50;86.22;100062.94;5075652;28;20487;-74
2021/05/15 01:41:03;;;;;;;6.70;1.80;;;;;;;10.51;85.92;100066.47;5075740;28;20056;-75
2021/05/15 01:44:07;;;;;;;6.97;1.80;;;;;;;10.51;86.14;100056.59;5062599;28;20502;-75
2021/05/15 01:47:11;;;;;;;4.03;1.60;;;;;;;10.44;86.07;100058.97;5040302;28;20051;-76
2021/05/15 01:50:17;;;;;;;5.10;1.45;;;;;;;10.44;86.35;100060.84;5013997;28;20053;-76
2021/05/15 01:53:12;;;;;;;7.47;1.85;;;;;;;10.46;86.56;100061.53;5019754;28;20053;-75
2021/05/15 01:56:18;;;;;;;5.15;1.50;;;;;;;10.41;86.14;100056.59;5013569;28;20053;-76
2021/05/15 01:59:22;;;;;;;4.13;1.27;;;;;;;10.37;86.41;100065.03;5013505;28;20141;-76
2021/05/15 02:02:26;;;;;;;5.50;1.58;;;;;;;10.41;86.49;100061.09;5013388;28;20049;-76
2021/05/15 02:05:30;;;;;;;7.20;1.70;;;;;;;10.39;86.80;100063.91;5013332;28;20045;-76
2021/05/15 02:08:35;;;;;;;4.75;1.35;;;;;;;10.22;86.82;100071.81;5012689;28;20069;-76
2021/05/15 02:11:39;;;;;;;5.40;1.55;;;;;;;10.16;87.17;100064.31;5001934;28;20049;-76
2021/05/15 02:14:43;;;;;;;4.53;1.63;;;;;;;10.16;87.46;100065.19;5013087;28;20045;-76
2021/05/15 02:17:48;;;;;;;5.85;1.30;;;;;;;10.10;86.87;100068.38;5013184;28;20560;-75
2021/05/15 02:20:53;;;;;;;4.75;1.40;;;;;;;10.14;86.96;100071.66;5001794;28;20150;-75
2021/05/15 02:23:58;;;;;;;4.78;1.30;;;;;;;10.06;86.86;100071.47;5012728;28;20056;-75
2021/05/15 02:27:01;;;;;;;6.25;1.20;;;;;;;10.00;86.93;100069.34;5039245;28;20056;-77
2021/05/15 02:30:06;;;;;;;4.18;1.30;;;;;;;9.95;87.33;100069.75;5074674;28;20403;-75
2021/05/15 02:33:11;;;;;;;4.85;1.58;;;;;;;9.98;87.41;100074.84;5074582;28;20067;-76
2021/05/15 02:36:15;;;;;;;6.07;1.50;;;;;;;9.89;87.40;100075.66;5074816;28;20592;-74
2021/05/15 02:39:20;;;;;;;5.30;1.40;;;;;;;9.80;87.69;100071.97;5074471;28;20392;-74
2021/05/15 02:42:24;;;;;;;5.90;1.50;;;;;;;9.81;87.45;100068.31;5074379;28;20047;-74
2021/05/15 02:45:28;;;;;;;5.53;1.58;;;;;;;9.79;88.45;100072.13;5061960;28;20379;-77
2021/05/15 02:48:32;;;;;;;3.45;1.77;;;;;;;9.86;88.56;100075.09;5074321;28;20055;-75
2021/05/15 02:51:37;;;;;;;5.32;1.55;;;;;;;9.93;87.97;100076.22;5073464;28;20068;-76
2021/05/15 02:54:41;;;;;;;6.20;1.73;;;;;;;9.89;87.29;100081.03;5074509;28;20388;-76
2021/05/15 02:57:47;;;;;;;4.25;1.60;;;;;;;9.79;87.41;100074.78;5074262;28;20059;-77
2021/05/15 03:00:51;;;;;;;4.93;1.85;;;;;;;9.72;87.85;100063.78;5074209;28;20494;-77
2021/05/15 03:03:55;;;;;;;6.00;2.10;;;;;;;9.63;88.07;100069.94;5061007;28;20056;-76
2021/05/15 03:07:00;;;;;;;4.25;1.90;;;;;;;9.69;87.95;100074.75;5072906;28;20059;-75
2021/05/15 03:10:06;;;;;;;4.38;1.70;;;;;;;9.66;88.25;100083.06;5074253;28;20055;-76
2021/05/15 03:13:10;;;;;;;12.27;2.05;;;;;;;9.67;88.23;100086.59;5073955;28;20051;-76
2021/05/15 03:16:14;;;;;;;5.75;1.83;;;;;;;9.68;88.48;100089.13;5074195;28;20487;-77
2021/05/15 03:19:19;;;;;;;7.38;1.77;;;;;;;9.80;88.33;100087.22;5072906;28;20051;-77
2021/05/15 03:22:24;;;;;;;4.82;2.10;;;;;;;9.85;87.85;100095.66;5073850;28;20456;-77
2021/05/15 03:25:28;;;;;;;4.50;1.45;;;;;;;9.90;87.65;100088.06;5033009;28;20045;-76
2021/05/15 03:28:32;;;;;;;3.55;1.75;;;;;;;9.90;87.42;100077.34;5033604;28;20401;-77
2021/05/15 03:31:36;;;;;;;7.38;1.88;;;;;;;9.88;87.33;100078.47;5034121;28;20068;-76
2021/05/15 03:34:41;;;;;;;4.50;1.80;;;;;;;9.72;87.43;100070.97;5033776;28;20088;-75
2021/05/15 03:37:45;;;;;;;5.07;1.80;;;;;;;9.59;87.92;100068.53;5033847;28;20550;-76
2021/05/15 03:40:49;;;;;;;6.15;2.03;;;;;;;9.52;87.91;100077.22;5033239;28;20072;-76
2021/05/15 03:43:53;;;;;;;6.25;2.05;;;;;;;9.52;88.06;100082.59;5033335;28;20056;-77
2021/05/15 03:46:58;;;;;;;7.07;2.10;;;;;;;9.49;88.10;100081.03;5033591;28;20049;-76
2021/05/15 03:50:03;;;;;;;4.60;1.80;;;;;;;9.48;88.19;100086.53;5025542;28;20049;-74
2021/05/15 03:53:07;;;;;;;6.90;1.83;;;;;;;9.52;88.59;100090.63;5032002;28;20062;-77
2021/05/15 03:56:12;;;;;;;4.43;1.92;;;;;;;9.55;88.23;100098.41;5025555;28;20052;-76
2021/05/15 03:59:16;;;;;;;6.50;1.80;;;;;;;9.51;87.82;100100.50;5026754;28;20053;-76
2021/05/15 04:02:24;;;;;;;5.43;2.00;;;;;;;9.53;87.76;100097.69;5014567;28;20045;-77
2021/05/15 04:05:28;;;;;;;6.63;2.03;;;;;;;9.57;87.60;100093.75;5013660;28;20041;-76
2021/05/15 04:08:33;;;;;;;6.00;2.10;;;;;;;9.61;87.29;100093.34;5012992;28;20049;-76
2021/05/15 04:11:39;;;;;;;5.55;1.80;;;;;;;9.66;86.99;100101.81;5013362;28;20401;-76
2021/05/15 04:18:10;;;;;;;8.00;2.00;;;;;;;10.00;85.86;100107.72;5012858;28;20056;-76
2021/05/15 04:21:15;;;;;;;6.25;1.70;;;;;;;10.17;85.14;100100.91;5013598;28;20493;-76
2021/05/15 04:24:24;;;;;;;11.18;1.95;;;;;;;10.41;83.54;100104.03;5024800;28;20056;-75
2021/05/15 04:27:28;;;;;;;4.28;1.50;;;;;;;10.58;82.36;100099.81;5032230;28;20044;-75
2021/05/15 04:30:33;;;;;;;12.43;1.85;;;;;;;10.76;81.44;100106.16;5033010;28;20073;-74
2021/05/15 04:33:38;;;;;;;6.07;1.73;;;;;;;10.87;80.74;100096.13;5036670;28;20080;-75
2021/05/15 04:36:42;;;;;;;5.50;1.42;;;;;;;11.07;80.17;100105.84;5036551;28;20056;-74
2021/05/15 04:39:47;;;;;;;7.25;1.30;;;;;;;11.41;78.98;100100.81;5036782;28;20056;-75
2021/05/15 04:42:51;;;;;;;7.78;1.40;;;;;;;11.52;77.92;100102.47;5036659;28;20479;-74
2021/05/15 04:45:59;;;;;;;5.07;1.50;;;;;;;11.82;77.22;100113.00;5036105;28;20041;-75
2021/05/15 04:49:04;;;;;;;5.95;1.60;;;;;;;12.25;78.04;100118.56;5036274;28;20045;-76
2021/05/15 04:52:09;;;;;;;107.57;82.13;;;;;;;12.54;74.68;100118.38;5036743;28;20053;-75
2021/05/15 04:55:13;;;;;;;17.48;8.55;;;;;;;12.66;73.40;100116.31;5035691;28;20038;-75
2021/05/15 04:58:18;;;;;;;4.60;1.80;;;;;;;12.95;72.89;100119.63;5036347;28;20048;-74
2021/05/15 05:01:23;;;;;;;3.72;1.45;;;;;;;13.34;71.39;100112.88;5046915;28;20056;-75
2021/05/15 05:04:27;;;;;;;7.82;1.33;;;;;;;13.64;70.66;100098.91;5036221;28;20048;-73
2021/05/15 05:07:32;;;;;;;4.15;1.23;;;;;;;14.51;69.90;100097.75;5035318;28;20056;-76
2021/05/15 05:10:36;;;;;;;5.82;1.77;;;;;;;15.16;64.18;100094.03;5036430;28;20381;-77
2021/05/15 05:13:40;;;;;;;3.88;0.90;;;;;;;15.85;61.97;100098.81;5036190;28;20044;-76
2021/05/15 05:16:45;;;;;;;8.35;1.30;;;;;;;16.06;61.19;100092.84;5036054;28;20041;-75
2021/05/15 05:19:50;;;;;;;2.78;1.00;;;;;;;16.67;59.77;100098.28;5035145;28;20041;-76
2021/05/15 05:22:54;;;;;;;4.80;1.13;;;;;;;17.42;57.58;100093.75;5036599;28;20049;-76
2021/05/15 05:25:58;;;;;;;3.10;1.00;;;;;;;17.38;55.78;100086.97;5055828;28;20056;-75
2021/05/15 05:29:07;;;;;;;6.07;1.45;;;;;;;17.51;56.29;100092.63;5043673;28;20048;-76
2021/05/15 05:32:11;;;;;;;5.78;0.90;;;;;;;17.19;57.64;100098.38;5055798;28;20488;-76
2021/05/15 05:35:16;;;;;;;3.42;1.00;;;;;;;16.82;57.93;100095.63;5055793;28;20052;-77
2021/05/15 05:38:21;;;;;;;3.53;0.90;;;;;;;17.13;57.71;100085.56;5055662;28;20052;-77
2021/05/15 05:41:26;;;;;;;2.80;0.90;;;;;;;18.10;55.77;100079.91;5055648;28;20055;-76
2021/05/15 05:44:31;;;;;;;4.85;1.00;;;;;;;18.92;52.31;100080.44;5055217;28;20056;-77
2021/05/15 05:47:35;;;;;;;3.50;0.88;;;;;;;20.56;48.39;100074.19;5055171;28;20059;-75
2021/05/15 05:50:39;;;;;;;3.97;0.98;;;;;;;21.95;44.46;100068.53;5043134;28;20052;-77
2021/05/15 05:53:44;;;;;;;4.03;1.10;;;;;;;23.18;42.06;100067.25;5055394;28;20051;-76
2021/05/15 05:56:48;;;;;;;4.10;0.88;;;;;;;23.85;40.17;100060.94;5055395;28;20052;-76
2021/05/15 05:59:53;;;;;;;2.40;0.80;;;;;;;23.53;40.81;100071.19;5054236;28;20048;-76
2021/05/15 06:02:57;;;;;;;4.07;0.88;;;;;;;23.46;41.47;100075.88;5074451;28;20067;-74
2021/05/15 06:06:02;;;;;;;2.45;0.80;;;;;;;23.66;40.91;100076.53;5074972;28;20051;-76
2021/05/15 06:09:06;;;;;;;2.42;0.80;;;;;;;23.67;40.51;100080.97;5075347;28;20047;-77
2021/05/15 06:12:10;;;;;;;3.53;0.82;;;;;;;24.04;40.31;100081.84;5056202;28;20071;-75
2021/05/15 06:15:15;;;;;;;6.43;0.90;;;;;;;24.85;39.01;100081.44;5059595;28;20399;-76
2021/05/15 06:18:20;;;;;;;4.35;0.93;;;;;;;25.56;38.06;100081.38;5062416;28;20075;-75
2021/05/15 06:21:24;;;;;;;2.97;0.88;;;;;;;25.93;37.76;100087.47;5054865;28;20056;-76
2021/05/15 06:24:28;;;;;;;2.95;0.90;;;;;;;26.95;35.44;100090.22;5054119;28;20052;-75
2021/05/15 06:27:33;;;;;;;5.60;1.00;;;;;;;27.63;34.44;100090.00;5054656;28;20051;-76
2021/05/15 06:30:38;;;;;;;3.08;0.95;;;;;;;27.55;33.34;100087.66;5057873;28;20047;-75
2021/05/15 06:33:43;;;;;;;6.22;0.90;;;;;;;28.00;33.39;100081.19;5059666;28;20043;-75
2021/05/15 06:36:47;;;;;;;2.17;0.77;;;;;;;28.53;33.02;100089.63;5069292;28;20072;-77
2021/05/15 06:39:51;;;;;;;3.42;0.93;;;;;;;29.89;31.09;100074.38;5054318;28;20044;-75
2021/05/15 06:42:56;;;;;;;4.40;0.82;;;;;;;30.73;29.12;100077.81;5054418;28;20040;-75
2021/05/15 06:46:00;;;;;;;3.45;0.80;;;;;;;31.73;28.17;100075.44;5059531;28;20040;-76
2021/05/15 06:49:05;;;;;;;5.22;0.80;;;;;;;31.79;28.00;100088.19;5073245;28;20055;-75
2021/05/15 06:52:11;;;;;;;6.22;0.80;;;;;;;32.19;27.54;100082.59;5074202;28;20082;-76
2021/05/15 06:55:18;;;;;;;2.60;0.70;;;;;;;32.62;26.21;100072.69;5073862;28;20044;-77
2021/05/15 06:58:23;;;;;;;1.42;0.60;;;;;;;32.52;26.45;100065.25;5074158;28;20048;-76
2021/05/15 07:01:27;;;;;;;2.97;0.50;;;;;;;31.48;26.93;100066.03;5074035;28;20039;-75
2021/05/15 07:04:31;;;;;;;4.97;0.70;;;;;;;31.59;27.54;100066.84;5073989;28;20047;-76
2021/05/15 07:07:36;;;;;;;3.72;0.60;;;;;;;32.76;25.91;100063.44;5073929;28;20043;-75
2021/05/15 07:10:41;;;;;;;6.53;1.17;;;;;;;33.31;25.62;100066.97;5073963;28;20566;-74
2021/05/15 07:13:45;;;;;;;3.78;1.10;;;;;;;33.62;25.59;100073.13;5074159;28;20047;-74
2021/05/15 07:16:49;;;;;;;4.75;0.90;;;;;;;34.26;24.49;100072.75;5073926;28;20055;-74
2021/05/15 07:19:59;;;;;;;3.38;1.08;;;;;;;35.05;23.34;100072.84;5073813;28;20052;-74
2021/05/15 07:23:07;;;;;;;2.45;0.90;;;;;;;36.71;21.78;100080.13;5071462;28;20047;-76
2021/05/15 07:26:11;;;;;;;2.80;0.90;;;;;;;36.10;22.71;100074.94;5071749;28;20052;-75
2021/05/15 07:29:16;;;;;;;2.65;0.80;;;;;;;35.34;23.46;100069.00;5073882;28;20048;-76
2021/05/15 07:32:21;;;;;;;3.08;1.00;;;;;;;36.12;22.35;100067.09;5072750;28;20399;-76
2021/05/15 07:35:27;;;;;;;3.80;1.13;;;;;;;36.34;21.90;100074.75;5073364;28;20395;-76
2021/05/15 07:38:31;;;;;;;2.80;1.23;;;;;;;35.07;23.33;100080.88;5073915;28;20044;-76
2021/05/15 07:41:36;;;;;;;4.28;1.17;;;;;;;35.56;22.94;100086.81;5073382;28;20047;-76
2021/05/15 07:44:40;;;;;;;4.60;1.00;;;;;;;35.66;22.40;100092.22;5073503;28;20048;-76
2021/05/15 07:47:44;;;;;;;2.60;1.10;;;;;;;33.36;24.85;100091.97;5072819;28;20071;-76
2021/05/15 07:50:49;;;;;;;3.42;1.30;;;;;;;34.00;24.58;100100.88;5073081;28;20051;-76
2021/05/15 07:53:54;;;;;;;3.80;1.10;;;;;;;34.08;24.03;100093.00;5059245;28;20407;-77
2021/05/15 07:56:58;;;;;;;3.95;1.30;;;;;;;33.49;24.94;100096.03;5061929;28;20052;-76
2021/05/15 08:00:04;;;;;;;3.53;1.05;;;;;;;34.05;24.87;100099.19;5064035;28;20048;-75
2021/05/15 08:03:16;;;;;;;4.45;1.60;;;;;;;31.94;26.44;100090.97;5053339;28;20048;-75
2021/05/15 08:06:20;;;;;;;3.88;1.25;;;;;;;30.07;29.37;100095.25;5066198;28;20044;-74
2021/05/15 08:09:24;;;;;;;3.72;1.40;;;;;;;30.55;29.01;100089.41;5076952;28;20059;-74
2021/05/15 08:12:29;;;;;;;2.83;1.10;;;;;;;31.57;27.90;100104.31;5077216;28;20048;-73
2021/05/15 08:15:34;;;;;;;5.97;1.50;;;;;;;28.69;31.98;100107.28;5056869;28;20048;-72
2021/05/15 08:18:39;;;;;;;4.90;1.90;;;;;;;29.00;32.12;100109.25;5044829;28;20052;-73
2021/05/15 08:21:44;;;;;;;4.43;1.30;;;;;;;29.03;31.50;100104.03;5042184;28;219554;-72
2021/05/15 08:24:48;;;;;;;4.03;1.20;;;;;;;29.11;32.43;100110.22;5058193;28;20051;-72
2021/05/15 08:27:56;;;;;;;3.40;1.50;;;;;;;28.30;32.88;100109.22;5074739;28;20055;-72
2021/05/15 08:31:01;;;;;;;4.22;1.20;;;;;;;27.90;33.55;100112.22;5075730;28;20047;-72
2021/05/15 08:34:05;;;;;;;4.85;1.50;;;;;;;27.33;35.33;100107.97;5067381;28;20376;-71
2021/05/15 08:37:10;;;;;;;4.60;1.73;;;;;;;26.72;35.98;100108.72;5056640;28;20052;-71
2021/05/15 08:40:15;;;;;;;3.50;1.80;;;;;;;26.01;37.48;100104.44;5072070;28;20048;-73
2021/05/15 08:43:20;;;;;;;3.38;1.65;;;;;;;25.26;38.08;100110.84;5076683;28;20067;-73
2021/05/15 08:46:26;;;;;;;4.05;1.25;;;;;;;23.75;39.91;100110.81;5073925;28;20048;-76
2021/05/15 08:49:36;;;;;;;6.10;1.40;;;;;;;23.66;40.99;100119.53;5070139;28;20411;-76
2021/05/15 08:52:43;;;;;;;3.67;1.40;;;;;;;24.05;41.05;100118.31;5064979;28;20047;-76
2021/05/15 08:55:48;;;;;;;2.65;1.20;;;;;;;24.00;40.50;100115.44;5066675;28;20509;-73
2021/05/15 08:58:54;;;;;;;3.47;1.25;;;;;;;24.00;40.69;100113.50;5072318;28;20063;-73
2021/05/15 09:01:59;;;;;;;4.45;1.70;;;;;;;24.40;39.93;100111.16;5073414;28;20071;-75
2021/05/15 09:05:05;;;;;;;6.28;1.55;;;;;;;24.39;40.38;100115.00;5074000;28;20051;-74
2021/05/15 09:08:11;;;;;;;3.28;1.48;;;;;;;24.11;41.52;100106.47;5075075;28;20055;-73
2021/05/15 09:11:17;;;;;;;4.03;1.33;;;;;;;24.46;40.77;100115.75;5075492;28;20047;-73
2021/05/15 09:14:25;;;;;;;3.17;1.40;;;;;;;23.85;42.32;100102.06;5075340;28;20040;-73
2021/05/15 09:17:40;;;;;;;6.15;1.60;;;;;;;23.82;42.20;100116.25;5074799;28;20048;-73
2021/05/15 09:20:46;;;;;;;4.80;1.40;;;;;;;24.05;42.33;100104.63;5075941;28;20047;-73
2021/05/15 09:23:51;;;;;;;5.57;1.48;;;;;;;24.08;42.74;100095.94;5083938;28;20054;-73
2021/05/15 09:26:56;;;;;;;5.85;1.60;;;;;;;23.87;41.90;100099.94;5083476;28;20059;-73
2021/05/15 09:30:00;;;;;;;4.00;2.30;;;;;;;23.72;42.24;100097.56;5096012;28;20055;-73
2021/05/15 09:33:12;;;;;;;4.80;2.17;;;;;;;23.82;42.04;100097.06;5095675;28;20067;-73
2021/05/15 09:36:29;;;;;;;6.43;1.70;;;;;;;23.84;42.27;100098.50;5096110;28;20081;-73
2021/05/15 09:39:34;;;;;;;2.45;1.27;;;;;;;23.89;42.70;100097.81;5095782;28;20071;-73
2021/05/15 09:42:58;;;;;;;3.40;1.20;;;;;;;23.93;43.05;100099.03;5095706;28;20067;-73
2021/05/15 09:46:04;;;;;;;4.43;1.50;;;;;;;23.92;42.27;100081.72;5094766;28;20047;-73
2021/05/15 09:49:10;;;;;;;2.75;1.10;;;;;;;24.01;42.85;100087.75;5095305;28;20497;-73
2021/05/15 09:52:14;;;;;;;2.55;1.33;;;;;;;23.69;42.97;100084.31;5095506;28;20372;-73
2021/05/15 09:55:19;;;;;;;4.65;1.55;;;;;;;23.56;43.80;100070.72;5095547;28;20051;-73
2021/05/15 09:58:25;;;;;;;5.07;1.80;;;;;;;23.45;43.93;100066.00;5095325;28;20386;-73
2021/05/15 10:01:49;;;;;;;3.35;1.65;;;;;;;23.02;44.39;100073.28;5095368;28;20051;-73
2021/05/15 10:04:53;;;;;;;4.28;1.40;;;;;;;23.15;43.81;100076.75;5082923;28;20051;-73
2021/05/15 10:08:06;;;;;;;5.10;1.20;;;;;;;23.34;43.98;100069.44;5095319;28;20394;-74
2021/05/15 10:11:11;;;;;;;4.40;1.50;;;;;;;23.45;44.07;100063.25;5082906;28;20047;-73
2021/05/15 10:14:15;;;;;;;4.35;1.50;;;;;;;23.57;44.51;100063.34;5095207;28;20043;-73
2021/05/15 10:17:19;;;;;;;4.68;2.10;;;;;;;23.35;44.88;100071.13;5094529;28;20497;-74
2021/05/15 10:20:24;;;;;;;4.18;1.85;;;;;;;23.08;45.07;100064.19;5094956;28;20055;-74
2021/05/15 10:23:30;;;;;;;3.42;1.65;;;;;;;22.80;45.73;100072.78;5094536;28;20047;-74
2021/05/15 10:26:34;;;;;;;4.07;1.70;;;;;;;22.85;45.86;100069.41;5094892;28;20051;-74
2021/05/15 10:29:43;;;;;;;5.15;1.90;;;;;;;23.13;45.79;100065.16;5094272;28;20047;-73
2021/05/15 10:32:57;;;;;;;4.97;1.60;;;;;;;23.28;45.13;100062.13;5094847;28;20059;-73
2021/05/15 10:36:04;;;;;;;4.15;1.40;;;;;;;23.43;45.18;100048.94;5094804;28;20470;-73
2021/05/15 10:39:09;;;;;;;4.30;1.17;;;;;;;23.56;44.85;100037.84;5094801;28;20051;-73
2021/05/15 10:42:14;;;;;;;3.83;1.27;;;;;;;23.74;43.80;100042.50;5094774;28;20071;-73
2021/05/15 10:45:35;;;;;;;3.20;1.30;;;;;;;23.37;43.80;100036.16;5094371;28;20062;-74
2021/05/15 10:48:40;;;;;;;2.58;1.20;;;;;;;23.40;44.39;100038.44;5094252;28;20059;-73
2021/05/15 10:52:10;;;;;;;6.18;1.23;;;;;;;23.55;44.37;100036.19;5094587;28;20066;-73
2021/05/15 10:55:33;;;;;;;9.27;7.35;;;;;;;23.88;42.51;100038.56;5082053;28;20043;-73
2021/05/15 10:58:50;;;;;;;34.88;29.23;;;;;;;23.83;43.41;100044.72;5094525;28;20059;-73
2021/05/15 11:01:58;;;;;;;3.33;1.73;;;;;;;23.97;44.15;100033.63;5094402;28;20044;-73
2021/05/15 11:05:17;;;;;;;5.10;1.40;;;;;;;23.84;43.89;100029.97;5093402;28;20047;-73
2021/05/15 11:08:25;;;;;;;2.50;1.30;;;;;;;23.72;44.09;100023.56;5094202;28;20062;-74
2021/05/15 11:11:36;;;;;;;3.10;1.10;;;;;;;23.98;44.09;100016.91;5094308;28;20057;-74
2021/05/15 11:14:45;;;;;;;4.65;1.20;;;;;;;24.13;43.48;100016.56;5094295;28;20063;-74
2021/05/15 11:18:04;;;;;;;4.43;1.27;;;;;;;24.22;43.26;100012.44;5094291;28;20039;-74
2021/05/15 11:21:09;;;;;;;3.67;1.52;;;;;;;24.22;43.13;100010.53;5094194;28;20051;-73
2021/05/15 11:24:14;;;;;;;3.95;1.65;;;;;;;24.10;44.09;99995.91;5072584;28;20123;-73
2021/05/15 11:27:19;;;;;;;3.08;1.42;;;;;;;23.99;44.28;100002.16;5084647;28;20052;-73
2021/05/15 11:30:36;;;;;;;5.50;2.33;;;;;;;24.06;43.77;100002.91;5073548;28;20052;-74
2021/05/15 11:33:42;;;;;;;5.40;1.80;;;;;;;24.18;42.98;99992.00;5073137;28;20043;-74
2021/05/15 11:36:46;;;;;;;4.00;1.60;;;;;;;23.88;44.00;99986.47;5061646;28;20055;-76
2021/05/15 11:39:52;;;;;;;2.88;1.35;;;;;;;23.79;44.04;99977.72;5059589;28;20506;-75
2021/05/15 11:42:57;;;;;;;3.05;1.27;;;;;;;23.87;43.69;99980.13;5071528;28;20067;-74
2021/05/15 11:46:10;;;;;;;2.75;1.15;;;;;;;23.58;43.07;99972.69;5077663;28;20048;-74
2021/05/15 11:49:24;;;;;;;3.67;1.40;;;;;;;23.60;43.77;99976.03;5068481;28;20040;-74
2021/05/15 11:52:35;;;;;;;3.38;2.20;;;;;;;23.26;44.69;99965.63;5077178;28;20502;-74
2021/05/15 11:55:40;;;;;;;6.07;1.98;;;;;;;23.03;47.47;99959.97;5073368;28;20048;-74
2021/05/15 11:58:45;;;;;;;5.38;1.90;;;;;;;22.77;48.53;99955.56;5064819;28;20047;-74
2021/05/15 12:01:50;;;;;;;3.67;1.95;;;;;;;22.78;49.02;99939.97;5059512;28;20059;-74
2021/05/15 12:04:55;;;;;;;3.33;1.90;;;;;;;22.70;47.91;99945.72;5070612;28;20052;-75
2021/05/15 12:08:09;;;;;;;3.28;1.73;;;;;;;22.54;47.74;99936.16;5077239;28;20490;-74
2021/05/15 12:11:14;;;;;;;4.35;2.60;;;;;;;22.27;49.89;99935.47;5077352;28;20510;-74
2021/05/15 12:14:19;;;;;;;4.45;2.55;;;;;;;22.00;49.62;99925.75;5077233;28;20047;-74
2021/05/15 12:17:23;;;;;;;4.85;2.67;;;;;;;21.69;50.96;99921.06;5075879;28;20047;-75
2021/05/15 12:20:51;;;;;;;4.22;2.47;;;;;;;21.60;50.99;99932.44;5061558;28;20043;-75
2021/05/15 12:24:06;;;;;;;4.70;2.50;;;;;;;21.74;51.87;99947.72;5055720;28;20044;-76
2021/05/15 12:27:20;;;;;;;4.88;2.40;;;;;;;21.73;50.91;99949.59;5058474;28;20056;-77
2021/05/15 12:30:26;;;;;;;4.78;2.47;;;;;;;22.04;50.69;99951.59;5075277;28;20051;-78
2021/05/15 12:33:32;;;;;;;7.18;4.97;;;;;;;21.93;50.65;99953.13;5076104;28;20047;-76
2021/05/15 12:36:39;;;;;;;19.83;17.15;;;;;;;22.24;50.42;99943.28;5063257;28;20044;-78
2021/05/15 12:39:44;;;;;;;5.75;4.40;;;;;;;22.43;50.15;99947.78;5066948;28;20052;-76
2021/05/15 12:42:49;;;;;;;7.68;2.40;;;;;;;22.55;50.59;99933.19;5066481;28;20044;-74
2021/05/15 12:45:55;;;;;;;6.05;2.50;;;;;;;22.12;50.63;99924.00;5073981;28;20051;-74
2021/05/15 12:49:03;;;;;;;6.30;2.50;;;;;;;22.04;51.09;99918.81;5073105;28;20052;-75
2021/05/15 12:52:20;;;;;;;3.45;2.10;;;;;;;22.09;51.41;99907.22;5072308;28;20044;-74
2021/05/15 12:55:24;;;;;;;5.20;2.50;;;;;;;22.10;51.66;99920.66;5074970;28;20044;-74
2021/05/15 12:58:29;;;;;;;3.78;2.60;;;;;;;22.01;51.03;99911.03;5076574;28;20059;-74
2021/05/15 13:01:35;;;;;;;4.07;2.35;;;;;;;22.07;50.62;99898.41;5075742;28;20495;-74
2021/05/15 13:04:45;;;;;;;5.13;2.40;;;;;;;22.24;50.99;99911.31;5087230;28;20400;-73
2021/05/15 13:07:50;;;;;;;4.07;2.42;;;;;;;22.26;49.75;99911.09;5076103;28;20051;-73
2021/05/15 13:10:54;;;;;;;4.32;2.42;;;;;;;22.43;49.33;99904.88;5075353;28;20044;-74
2021/05/15 13:14:00;;;;;;;4.60;2.40;;;;;;;22.54;49.60;99901.41;5076644;28;20052;-74
2021/05/15 13:17:04;;;;;;;7.78;2.20;;;;;;;22.56;49.13;99899.31;5062208;28;20052;-75
2021/05/15 13:20:09;;;;;;;6.63;2.72;;;;;;;22.49;49.27;99906.69;5059622;28;20051;-77
2021/05/15 13:23:14;;;;;;;4.00;2.30;;;;;;;22.53;50.21;99888.78;5063437;28;20443;-77
2021/05/15 13:26:21;;;;;;;8.68;2.63;;;;;;;22.48;50.78;99894.09;5075990;28;20055;-77
2021/05/15 13:29:26;;;;;;;4.75;2.47;;;;;;;22.48;50.85;99894.09;5080276;28;20055;-77
2021/05/15 13:32:30;;;;;;;5.68;2.60;;;;;;;22.44;50.49;99901.06;5080550;28;20399;-77
2021/05/15 13:35:35;;;;;;;6.50;2.40;;;;;;;22.34;50.43;99899.88;5075898;28;20055;-77
2021/05/15 13:38:39;;;;;;;3.88;2.40;;;;;;;22.41;50.68;99892.47;5074959;28;20044;-78
2021/05/15 13:41:44;;;;;;;5.38;2.95;;;;;;;22.34;49.98;99903.47;5077646;28;20047;-77
2021/05/15 13:44:48;;;;;;;4.72;2.70;;;;;;;22.37;49.79;99902.16;5088637;28;20047;-77
2021/05/15 13:47:53;;;;;;;5.03;2.90;;;;;;;22.09;50.44;99888.06;5074871;28;20399;-78
2021/05/15 13:50:59;;;;;;;7.32;5.43;;;;;;;21.88;51.31;99879.16;5078792;28;20506;-76
2021/05/15 13:54:04;;;;;;;8.82;3.22;;;;;;;21.98;51.24;99889.59;5093508;28;20055;-77
2021/05/15 13:57:08;;;;;;;6.03;3.65;;;;;;;22.09;51.07;99893.53;5083075;28;20047;-77
2021/05/15 14:00:14;;;;;;;7.60;3.13;;;;;;;22.30;50.43;99888.53;5095576;28;20039;-77
2021/05/15 14:03:19;;;;;;;4.38;3.10;;;;;;;22.19;51.40;99886.53;5094774;28;20047;-77
2021/05/15 14:06:23;;;;;;;5.25;2.40;;;;;;;22.34;51.72;99889.78;5095036;28;20043;-77
2021/05/15 14:09:28;;;;;;;5.15;2.95;;;;;;;22.30;51.67;99872.13;5095254;28;20047;-78
2021/05/15 14:12:33;;;;;;;5.35;2.97;;;;;;;22.34;50.62;99862.44;5095555;28;20047;-77
2021/05/15 14:15:37;;;;;;;6.80;3.47;;;;;;;22.16;50.66;99865.09;5094080;28;20047;-77
2021/05/15 14:18:41;;;;;;;6.90;2.75;;;;;;;22.36;50.41;99854.00;5094653;28;20047;-77
2021/05/15 14:21:46;;;;;;;7.30;3.30;;;;;;;22.35;51.48;99869.56;5091532;28;20509;-74
2021/05/15 14:24:50;;;;;;;5.88;3.53;;;;;;;22.37;51.07;99864.72;5085598;28;20047;-75
2021/05/15 14:27:55;;;;;;;6.43;3.38;;;;;;;22.55;50.57;99870.25;5087074;28;20055;-77
2021/05/15 14:30:59;;;;;;;8.93;3.60;;;;;;;22.37;51.14;99853.78;5069444;28;234121;-75